createdAt,value
2023-04-01T00:09:44.968Z,14.64
2023-04-01T00:24:47.751Z,12.74
2023-04-01T00:39:50.406Z,14.30
2023-04-01T00:54:58.653Z,14.36
2023-04-01T01:10:01.282Z,14.79
2023-04-01T01:25:23.100Z,13.36
2023-04-01T01:40:28.347Z,11.42
2023-04-01T01:55:37.155Z,13.89
2023-04-01T02:10:44.580Z,14.13
2023-04-01T02:25:48.553Z,15.07
2023-04-01T02:40:57.635Z,13.81
2023-04-01T02:56:00.657Z,14.90
2023-04-01T03:11:03.358Z,13.72
2023-04-01T03:26:06.007Z,14.99
2023-04-01T03:41:13.619Z,15.23
2023-04-01T03:56:16.605Z,14.40
2023-04-01T04:11:21.155Z,14.95
2023-04-01T04:26:23.757Z,15.83
2023-04-01T04:41:26.995Z,15.56
2023-04-01T04:56:29.755Z,15.51
2023-04-01T05:11:32.422Z,15.21
2023-04-01T05:26:38.333Z,15.58
2023-04-01T05:41:41.560Z,15.94
2023-04-01T05:56:45.033Z,15.72
2023-04-01T06:12:21.393Z,16.09
2023-04-01T06:27:52.487Z,14.69
2023-04-01T06:43:02.406Z,15.83
2023-04-01T06:58:11.893Z,16.26
2023-04-01T07:13:48.896Z,15.03
2023-04-01T07:28:53.912Z,16.60
2023-04-01T07:44:16.341Z,16.55
2023-04-01T07:59:25.759Z,16.48
2023-04-01T08:14:49.375Z,16.53
2023-04-01T08:30:15.966Z,16.70
2023-04-01T08:45:44.895Z,16.73
2023-04-01T09:00:57.282Z,17.03
2023-04-01T09:16:18.711Z,16.58
2023-04-01T09:31:46.131Z,17.66
2023-04-01T09:47:20.001Z,17.07
2023-04-01T10:02:44.268Z,17.47
2023-04-01T10:18:14.704Z,15.51
2023-04-01T10:33:49.434Z,16.43
2023-04-01T10:48:54.989Z,14.63
2023-04-01T11:04:35.614Z,15.61
2023-04-01T11:20:16.294Z,16.03
2023-04-01T11:35:37.008Z,16.63
2023-04-01T11:50:59.885Z,16.74
2023-04-01T12:06:15.015Z,16.79
2023-04-01T12:21:33.137Z,16.70
2023-04-01T12:36:51.221Z,17.20
2023-04-01T12:52:19.634Z,17.97
2023-04-01T13:07:50.495Z,16.65
2023-04-01T13:22:58.999Z,18.63
2023-04-01T13:38:31.002Z,17.90
2023-04-01T13:54:11.071Z,16.57
2023-04-01T14:09:34.178Z,16.93
2023-04-01T14:24:58.380Z,17.39
2023-04-01T14:40:41.032Z,17.76
2023-04-01T14:55:43.779Z,16.20
2023-04-01T15:11:11.655Z,16.45
2023-04-01T15:26:33.882Z,17.35
2023-04-01T15:41:57.256Z,15.40
2023-04-01T15:56:59.797Z,15.67
2023-04-01T16:12:05.630Z,15.62
2023-04-01T16:27:35.158Z,13.91
2023-04-01T16:42:48.220Z,17.29
2023-04-01T16:57:59.429Z,15.19
2023-04-01T17:13:20.909Z,16.69
2023-04-01T17:28:37.947Z,15.61
2023-04-01T17:44:17.296Z,15.48
2023-04-01T17:59:36.999Z,15.55
2023-04-01T18:15:20.877Z,14.74
2023-04-01T18:30:30.800Z,14.42
2023-04-01T18:45:59.035Z,14.34
2023-04-01T19:01:25.375Z,14.54
2023-04-01T19:17:00.451Z,14.07
2023-04-01T19:32:29.393Z,13.85
2023-04-01T19:47:53.455Z,13.92
2023-04-01T20:03:04.314Z,13.77
2023-04-01T20:18:29.700Z,14.21
2023-04-01T20:34:00.344Z,13.57
2023-04-01T20:49:12.080Z,13.56
2023-04-01T21:04:52.030Z,13.56
2023-04-01T21:20:07.503Z,13.51
2023-04-01T21:35:43.634Z,13.32
2023-04-01T21:50:56.635Z,13.35
2023-04-01T22:06:21.838Z,12.99
2023-04-01T22:21:41.609Z,12.66
2023-04-01T22:37:01.305Z,12.69
2023-04-01T22:52:17.440Z,12.81
2023-04-01T23:07:48.017Z,12.42
2023-04-01T23:23:03.314Z,12.35
2023-04-01T23:38:09.596Z,11.98
2023-04-01T23:53:19.532Z,12.06
